Time;durP1;ratioP1;P1;durP2;ratioP2;P2;SDS_P1;SDS_P2;PMS_P1;PMS_P2;Temp;Humidity;BMP_temperature;BMP_pressure;BME280_temperature;BME280_humidity;BME280_pressure;Samples;Min_cycle;Max_cycle;Signal;HPM_P1;HPM_P2
2022/12/29 00:01:41;;;;;;;9.73;5.38;;;9.90;99.90;;;;;;5147526;27;20041;-53
2022/12/29 00:04:09;;;;;;;12.27;5.72;;;9.90;99.90;;;;;;5144707;27;20042;-56
2022/12/29 00:06:34;;;;;;;9.65;5.20;;;9.90;99.90;;;;;;5128231;27;20534;-55
2022/12/29 00:09:00;;;;;;;10.63;5.63;;;9.90;99.90;;;;;;5145954;27;20038;-56
2022/12/29 00:11:27;;;;;;;9.88;5.95;;;9.90;99.90;;;;;;5147739;27;20069;-56
2022/12/29 00:16:40;;;;;;;8.57;6.03;;;9.90;99.90;;;;;;5146754;27;20770;-55
2022/12/29 00:19:06;;;;;;;8.23;5.90;;;9.90;99.90;;;;;;5145753;27;20031;-55
2022/12/29 00:35:31;;;;;;;10.73;6.43;;;9.90;99.90;;;;;;5145721;27;20042;-54
2022/12/29 00:46:14;;;;;;;11.00;6.22;;;9.90;99.90;;;;;;5147014;27;20386;-56
2022/12/29 00:51:24;;;;;;;8.07;5.05;;;10.00;99.90;;;;;;5145932;27;20619;-57
2022/12/29 00:53:49;;;;;;;8.65;5.70;;;10.00;99.90;;;;;;5126075;27;20094;-55
2022/12/29 00:56:15;;;;;;;7.88;5.60;;;10.00;99.90;;;;;;5146915;27;20152;-55
2022/12/29 00:58:40;;;;;;;11.48;5.88;;;10.10;99.90;;;;;;5145275;27;20066;-57
2022/12/29 01:01:08;;;;;;;8.57;5.55;;;10.00;99.90;;;;;;5146711;27;20046;-53
2022/12/29 01:03:36;;;;;;;10.00;5.47;;;10.10;99.90;;;;;;5144626;27;20034;-58
2022/12/29 01:06:03;;;;;;;9.18;5.40;;;10.10;99.90;;;;;;5145463;27;20039;-56
2022/12/29 01:08:29;;;;;;;9.18;6.28;;;10.10;99.90;;;;;;5145294;27;20031;-53
2022/12/29 01:11:02;;;;;;;8.73;5.75;;;10.10;99.90;;;;;;5146617;27;20038;-54
2022/12/29 01:13:28;;;;;;;8.48;5.15;;;10.10;99.90;;;;;;5145400;27;20069;-58
2022/12/29 01:15:54;;;;;;;9.27;5.07;;;10.20;99.90;;;;;;5146561;27;20485;-56
2022/12/29 01:18:21;;;;;;;7.63;5.43;;;10.20;99.90;;;;;;5144862;27;20034;-56
2022/12/29 01:20:47;;;;;;;8.75;5.13;;;10.20;99.90;;;;;;5145458;27;20038;-56
2022/12/29 01:23:12;;;;;;;8.25;5.07;;;10.20;99.90;;;;;;5145493;27;20094;-56
2022/12/29 01:25:38;;;;;;;7.55;5.22;;;10.20;99.90;;;;;;5146413;27;20042;-59
2022/12/29 01:28:03;;;;;;;9.70;5.00;;;10.20;99.90;;;;;;5146298;27;20035;-56
2022/12/29 01:30:29;;;;;;;6.47;3.83;;;10.20;99.90;;;;;;5146149;27;20080;-55
2022/12/29 01:32:54;;;;;;;8.23;4.53;;;10.20;99.90;;;;;;5144748;27;20393;-55
2022/12/29 01:35:20;;;;;;;7.65;4.97;;;10.30;99.90;;;;;;5144604;27;20043;-57
2022/12/29 01:37:46;;;;;;;8.00;4.57;;;10.30;99.90;;;;;;5143838;27;20117;-56
2022/12/29 01:40:12;;;;;;;7.50;4.55;;;10.30;99.90;;;;;;5145867;27;20296;-56
2022/12/29 01:42:37;;;;;;;9.52;5.20;;;10.30;99.90;;;;;;5145983;27;20054;-56
2022/12/29 01:45:09;;;;;;;9.02;4.60;;;10.30;99.90;;;;;;5146037;27;20050;-57
2022/12/29 01:47:49;;;;;;;7.38;4.45;;;10.30;99.90;;;;;;5143779;27;20464;-55
2022/12/29 01:50:35;;;;;;;8.45;4.50;;;10.20;99.90;;;;;;5110123;27;20042;-55
2022/12/29 01:53:20;;;;;;;7.30;4.55;;;10.20;99.90;;;;;;5127382;27;20124;-57
2022/12/29 01:55:54;;;;;;;10.38;4.45;;;10.20;99.90;;;;;;5146162;27;20042;-56
2022/12/29 01:58:24;;;;;;;8.57;4.35;;;10.20;99.90;;;;;;5145618;27;20030;-55
2022/12/29 02:00:50;;;;;;;7.57;4.20;;;10.20;99.90;;;;;;5144787;27;20405;-56
2022/12/29 02:03:18;;;;;;;8.88;3.72;;;10.20;99.90;;;;;;5144675;27;20034;-56
2022/12/29 02:06:06;;;;;;;8.27;3.83;;;10.30;99.90;;;;;;5144166;27;20050;-51
2022/12/29 02:08:32;;;;;;;6.43;4.03;;;10.30;99.90;;;;;;5142488;27;20517;-55
2022/12/29 02:11:00;;;;;;;7.75;4.00;;;10.30;99.90;;;;;;5145505;27;20050;-58
2022/12/29 02:13:27;;;;;;;6.55;3.67;;;10.30;99.90;;;;;;5126674;27;20145;-57
2022/12/29 02:16:09;;;;;;;6.20;3.80;;;10.30;99.90;;;;;;5144948;27;20070;-54
2022/12/29 02:18:41;;;;;;;6.22;3.88;;;10.30;99.90;;;;;;5142433;27;20126;-56
2022/12/29 02:21:21;;;;;;;8.75;4.00;;;10.40;99.90;;;;;;5144648;27;20034;-56
2022/12/29 02:24:19;;;;;;;7.78;4.13;;;10.40;99.90;;;;;;5144240;27;20039;-56
2022/12/29 02:27:22;;;;;;;7.22;3.53;;;10.40;99.90;;;;;;5145180;27;20485;-56
2022/12/29 02:30:07;;;;;;;6.68;3.60;;;10.40;99.90;;;;;;5145507;27;20030;-58
2022/12/29 02:32:48;;;;;;;6.88;2.97;;;10.40;99.90;;;;;;5143858;27;22019;-56
2022/12/29 02:35:47;;;;;;;8.40;3.40;;;10.50;99.90;;;;;;5143564;27;20664;-56
2022/12/29 02:38:41;;;;;;;7.00;3.65;;;10.50;99.90;;;;;;5143605;27;20053;-59
2022/12/29 02:41:16;;;;;;;8.15;3.88;;;10.40;99.90;;;;;;5144648;27;20070;-57
2022/12/29 02:43:59;;;;;;;6.65;3.70;;;10.40;99.90;;;;;;5144544;27;20045;-56
2022/12/29 02:46:36;;;;;;;6.47;3.47;;;10.30;99.90;;;;;;5124695;28;20047;-56
2022/12/29 02:49:29;;;;;;;7.20;3.97;;;10.30;99.90;;;;;;5135895;27;20066;-57
2022/12/29 02:51:58;;;;;;;7.80;4.15;;;10.20;99.90;;;;;;5143248;27;20103;-56
2022/12/29 02:54:42;;;;;;;7.28;4.30;;;10.20;99.90;;;;;;5142329;27;20034;-55
2022/12/29 02:57:33;;;;;;;6.25;3.25;;;10.10;99.90;;;;;;5108575;27;20046;-59
2022/12/29 03:00:07;;;;;;;9.07;3.58;;;10.10;99.90;;;;;;5131949;27;20051;-58
2022/12/29 03:02:38;;;;;;;;;;;10.10;99.90;;;;;;5143936;27;20045;-57
2022/12/29 03:05:26;;;;;;;6.15;3.30;;;10.10;99.90;;;;;;5143283;27;20023;-56
2022/12/29 03:08:28;;;;;;;7.10;3.17;;;10.20;99.90;;;;;;5142639;27;20066;-56
2022/12/29 03:11:03;;;;;;;6.47;2.75;;;10.20;99.90;;;;;;5145025;27;20122;-56
2022/12/29 03:16:36;;;;;;;5.70;2.60;;;10.20;99.90;;;;;;5144890;27;20149;-56
2022/12/29 03:19:14;;;;;;;6.18;3.03;;;10.20;99.90;;;;;;5142589;27;20505;-56
2022/12/29 03:24:34;;;;;;;7.70;2.20;;;10.20;99.90;;;;;;5143800;27;20046;-57
2022/12/29 03:27:02;;;;;;;5.32;2.10;;;10.30;99.90;;;;;;5126210;27;20069;-57
2022/12/29 03:29:30;;;;;;;5.97;2.05;;;10.40;99.90;;;;;;5147674;27;20481;-57
2022/12/29 03:31:59;;;;;;;4.90;1.80;;;10.40;99.90;;;;;;5147307;27;20546;-57
2022/12/29 03:34:26;;;;;;;5.95;1.90;;;10.50;99.90;;;;;;5147441;27;20047;-56
2022/12/29 03:37:02;;;;;;;5.00;1.73;;;10.50;99.90;;;;;;5146807;27;20046;-56
2022/12/29 03:39:28;;;;;;;4.60;1.50;;;10.40;99.90;;;;;;5128943;27;20054;-58
2022/12/29 03:42:02;;;;;;;5.80;1.70;;;10.40;99.90;;;;;;5148376;27;20046;-58
2022/12/29 03:44:38;;;;;;;5.28;1.70;;;10.40;99.90;;;;;;5147856;27;20620;-56
2022/12/29 03:47:05;;;;;;;4.72;1.75;;;10.40;99.90;;;;;;5148060;27;20125;-57
2022/12/29 03:49:31;;;;;;;5.90;1.90;;;10.40;99.90;;;;;;5146364;27;20035;-56
2022/12/29 03:51:57;;;;;;;4.53;1.70;;;10.30;99.90;;;;;;5146117;27;20069;-56
2022/12/29 03:54:23;;;;;;;5.85;1.90;;;10.30;99.90;;;;;;5146184;27;20398;-56
2022/12/29 03:56:49;;;;;;;7.18;1.92;;;10.30;99.90;;;;;;5147241;27;20641;-56
2022/12/29 03:59:14;;;;;;;7.93;1.77;;;10.30;99.90;;;;;;5129115;27;20039;-58
2022/12/29 04:01:40;;;;;;;4.20;1.75;;;10.30;99.90;;;;;;5146668;27;20473;-57
2022/12/29 04:04:05;;;;;;;4.95;1.90;;;10.30;99.90;;;;;;5146606;27;20203;-56
2022/12/29 04:06:31;;;;;;;6.07;1.88;;;10.30;99.90;;;;;;5128408;27;20116;-56
2022/12/29 04:08:56;;;;;;;5.57;2.15;;;10.30;99.90;;;;;;5146317;27;20338;-56
2022/12/29 04:11:22;;;;;;;4.85;1.73;;;10.30;99.90;;;;;;5147607;27;20109;-53
2022/12/29 04:13:48;;;;;;;7.57;1.88;;;10.20;99.90;;;;;;5147555;27;20049;-56
2022/12/29 04:16:14;;;;;;;6.90;1.85;;;10.20;99.90;;;;;;5147735;27;20039;-56
2022/12/29 04:18:39;;;;;;;6.47;2.00;;;10.20;99.90;;;;;;5144585;27;20043;-57
2022/12/29 04:21:06;;;;;;;4.97;1.75;;;10.30;99.90;;;;;;5127886;27;20145;-57
2022/12/29 04:23:34;;;;;;;6.22;1.80;;;10.30;99.90;;;;;;5145835;27;20053;-55
2022/12/29 04:26:00;;;;;;;4.68;1.60;;;10.30;99.90;;;;;;5147851;27;20034;-57
2022/12/29 04:28:26;;;;;;;4.93;1.60;;;10.30;99.90;;;;;;5147427;27;20045;-56
2022/12/29 04:30:52;;;;;;;3.83;1.38;;;10.30;99.90;;;;;;5146465;27;20083;-57
2022/12/29 04:33:17;;;;;;;6.40;1.27;;;10.30;99.90;;;;;;5146274;27;20047;-56
2022/12/29 04:35:43;;;;;;;6.38;1.40;;;10.30;99.90;;;;;;5110457;27;20134;-57
2022/12/29 04:38:09;;;;;;;6.57;1.73;;;10.40;99.90;;;;;;5144980;27;20142;-55
2022/12/29 04:40:37;;;;;;;8.77;1.40;;;10.30;99.90;;;;;;5146656;27;20083;-53
2022/12/29 04:43:02;;;;;;;10.18;1.70;;;10.30;99.90;;;;;;5146163;27;20130;-56
2022/12/29 04:45:28;;;;;;;10.80;1.63;;;10.30;99.90;;;;;;5146719;27;20117;-55
2022/12/29 04:47:54;;;;;;;8.85;1.42;;;10.30;99.90;;;;;;5145210;27;20100;-54
2022/12/29 04:50:19;;;;;;;6.97;1.40;;;10.30;99.90;;;;;;5126554;27;20074;-56
2022/12/29 04:52:45;;;;;;;5.38;1.38;;;10.30;99.90;;;;;;5144434;27;20095;-51
2022/12/29 04:55:11;;;;;;;6.72;1.30;;;10.30;99.90;;;;;;5146726;27;20117;-57
2022/12/29 04:57:36;;;;;;;8.55;1.40;;;10.30;99.90;;;;;;5145991;27;20485;-59
2022/12/29 05:00:03;;;;;;;8.02;1.73;;;10.30;99.90;;;;;;5147121;27;20038;-57
2022/12/29 05:02:28;;;;;;;7.63;1.30;;;10.30;99.90;;;;;;5146599;27;20082;-58
2022/12/29 05:04:54;;;;;;;5.35;1.15;;;10.20;99.90;;;;;;5144531;27;20282;-56
2022/12/29 05:07:20;;;;;;;7.57;1.50;;;10.20;99.90;;;;;;5127975;27;20085;-57
2022/12/29 05:09:45;;;;;;;4.15;1.10;;;10.10;99.90;;;;;;5146204;27;20037;-58
2022/12/29 05:12:11;;;;;;;9.40;1.48;;;10.10;99.90;;;;;;5146223;27;20043;-55
2022/12/29 05:14:36;;;;;;;6.97;1.52;;;10.00;99.90;;;;;;5146276;27;20055;-55
2022/12/29 05:17:02;;;;;;;7.50;1.40;;;9.90;99.90;;;;;;5126984;27;20042;-53
2022/12/29 05:19:27;;;;;;;8.05;1.90;;;9.90;99.90;;;;;;5144892;27;20483;-56
2022/12/29 05:21:54;;;;;;;9.60;1.90;;;9.80;99.90;;;;;;5125927;27;20091;-55
2022/12/29 05:24:20;;;;;;;9.68;2.10;;;9.80;99.90;;;;;;5146013;27;20054;-51
2022/12/29 05:26:45;;;;;;;9.00;1.67;;;9.80;99.90;;;;;;5146238;27;20375;-56
2022/12/29 05:29:11;;;;;;;13.95;2.03;;;9.80;99.90;;;;;;5145651;27;20794;-55
2022/12/29 05:31:36;;;;;;;10.50;1.98;;;9.70;99.90;;;;;;5145774;27;20441;-54
2022/12/29 05:34:02;;;;;;;8.77;1.83;;;9.70;99.90;;;;;;5124975;27;20087;-50
2022/12/29 05:36:28;;;;;;;8.90;2.10;;;9.70;99.90;;;;;;5144960;27;20049;-55
2022/12/29 05:38:53;;;;;;;14.55;2.58;;;9.60;99.90;;;;;;5144588;27;20076;-56
2022/12/29 05:41:19;;;;;;;7.38;1.83;;;9.60;99.90;;;;;;5146280;27;20481;-53
2022/12/29 05:43:44;;;;;;;9.50;2.08;;;9.60;99.90;;;;;;5145928;27;20045;-57
2022/12/29 05:46:10;;;;;;;12.85;2.53;;;9.60;99.90;;;;;;5145589;27;20042;-53
2022/12/29 05:48:36;;;;;;;13.73;2.05;;;9.60;99.90;;;;;;5124680;27;20049;-56
2022/12/29 05:51:01;;;;;;;11.15;2.00;;;9.50;99.90;;;;;;5143986;27;20445;-52
2022/12/29 05:53:27;;;;;;;13.18;2.25;;;9.40;99.90;;;;;;5142552;27;20053;-53
2022/12/29 05:55:52;;;;;;;18.63;2.60;;;9.40;99.90;;;;;;5127096;27;20519;-54
2022/12/29 05:58:18;;;;;;;10.68;2.03;;;9.40;99.90;;;;;;5145466;27;20038;-54
2022/12/29 06:00:44;;;;;;;13.25;2.05;;;9.30;99.90;;;;;;5145680;27;20070;-51
2022/12/29 06:03:09;;;;;;;14.13;2.42;;;9.40;99.90;;;;;;5123978;27;20049;-56
2022/12/29 06:05:35;;;;;;;13.13;2.13;;;9.40;99.90;;;;;;5144017;27;20550;-55
2022/12/29 06:08:00;;;;;;;9.18;2.00;;;9.40;99.90;;;;;;5143300;27;20073;-56
2022/12/29 06:10:26;;;;;;;7.93;1.98;;;9.50;99.90;;;;;;5145364;27;20038;-57
2022/12/29 06:12:51;;;;;;;12.50;2.28;;;9.50;99.90;;;;;;5144262;27;20047;-57
2022/12/29 06:15:17;;;;;;;9.07;2.08;;;9.50;99.90;;;;;;5145381;27;20041;-56
2022/12/29 06:17:43;;;;;;;15.48;2.30;;;9.50;99.90;;;;;;5144139;27;20171;-58
2022/12/29 06:20:09;;;;;;;12.82;2.15;;;9.50;99.90;;;;;;5144454;27;20034;-56
2022/12/29 06:22:36;;;;;;;10.50;1.77;;;9.50;99.90;;;;;;5144009;27;20047;-52
2022/12/29 06:25:02;;;;;;;8.85;2.08;;;9.50;99.90;;;;;;5144124;27;20393;-56
2022/12/29 06:27:28;;;;;;;11.60;1.92;;;9.50;99.90;;;;;;5145349;27;20057;-55
2022/12/29 06:29:54;;;;;;;8.65;2.20;;;9.50;99.90;;;;;;5145166;27;20039;-53
2022/12/29 06:32:20;;;;;;;10.02;1.70;;;9.50;99.90;;;;;;5144830;27;20038;-57
2022/12/29 06:34:45;;;;;;;15.73;2.83;;;9.50;99.90;;;;;;5106372;27;20386;-59
2022/12/29 06:37:11;;;;;;;11.57;2.08;;;9.50;99.90;;;;;;5144075;27;20053;-54
2022/12/29 06:39:37;;;;;;;14.05;2.20;;;9.50;99.90;;;;;;5144710;27;20145;-57
2022/12/29 06:42:03;;;;;;;17.65;2.58;;;9.50;99.90;;;;;;5145373;27;20034;-55
2022/12/29 06:44:28;;;;;;;13.00;2.28;;;9.60;99.90;;;;;;5126654;27;20118;-58
2022/12/29 06:46:54;;;;;;;12.85;2.38;;;9.50;99.90;;;;;;5144276;27;20401;-55
2022/12/29 06:49:20;;;;;;;13.30;2.33;;;9.50;99.90;;;;;;5142737;27;20485;-55
2022/12/29 06:51:46;;;;;;;15.30;2.70;;;9.50;99.90;;;;;;5143746;27;20054;-57
2022/12/29 06:54:12;;;;;;;13.48;2.53;;;9.50;99.90;;;;;;5143993;27;20469;-53
2022/12/29 06:56:37;;;;;;;12.57;3.03;;;9.40;99.90;;;;;;5126823;27;20540;-57
2022/12/29 06:59:03;;;;;;;13.35;2.30;;;9.40;99.90;;;;;;5145029;27;20117;-56
2022/12/29 07:01:29;;;;;;;17.85;2.33;;;9.40;99.90;;;;;;5144507;27;20258;-56
2022/12/29 07:03:55;;;;;;;15.07;2.35;;;9.30;99.90;;;;;;5146818;27;20039;-53
2022/12/29 07:06:20;;;;;;;23.05;3.05;;;9.30;99.90;;;;;;5148558;27;20069;-57
2022/12/29 07:08:46;;;;;;;13.77;2.20;;;9.30;99.90;;;;;;5147664;27;20106;-57
2022/12/29 07:11:12;;;;;;;11.10;2.10;;;9.30;99.90;;;;;;5149039;27;20117;-55
2022/12/29 07:13:37;;;;;;;13.68;2.63;;;9.40;99.90;;;;;;5147708;27;20109;-56
2022/12/29 07:16:09;;;;;;;15.90;2.65;;;9.40;99.90;;;;;;5129925;27;20114;-57
2022/12/29 07:18:35;;;;;;;15.68;2.63;;;9.40;99.90;;;;;;5146624;27;20038;-57
2022/12/29 07:21:01;;;;;;;14.75;3.03;;;9.50;99.90;;;;;;5147861;27;20045;-56
2022/12/29 07:23:27;;;;;;;18.08;2.38;;;9.50;99.90;;;;;;5147507;27;20042;-55
2022/12/29 07:26:01;;;;;;;13.48;2.03;;;9.50;99.90;;;;;;5148628;27;20042;-54
2022/12/29 07:28:27;;;;;;;13.77;2.45;;;9.60;99.90;;;;;;5140957;27;20143;-56
2022/12/29 07:30:52;;;;;;;15.63;2.38;;;9.50;99.90;;;;;;5127605;27;20121;-52
2022/12/29 07:33:18;;;;;;;15.77;2.42;;;9.60;99.90;;;;;;5114325;27;20545;-57
2022/12/29 07:35:43;;;;;;;14.48;2.75;;;9.50;99.90;;;;;;5146780;27;20042;-55
2022/12/29 07:38:09;;;;;;;10.80;2.20;;;9.50;99.90;;;;;;5146404;27;20031;-55
2022/12/29 07:40:34;;;;;;;12.88;2.92;;;9.50;99.90;;;;;;5148750;27;20045;-52
2022/12/29 07:43:00;;;;;;;13.80;2.58;;;9.50;99.90;;;;;;5129895;27;20086;-55
2022/12/29 07:45:25;;;;;;;20.15;3.30;;;9.60;99.90;;;;;;5148273;27;20034;-57
2022/12/29 07:47:51;;;;;;;13.27;3.40;;;9.60;99.90;;;;;;5146759;27;20119;-55
2022/12/29 07:50:17;;;;;;;19.50;2.97;;;9.60;99.90;;;;;;5145964;27;20058;-56
2022/12/29 07:52:42;;;;;;;12.18;2.92;;;9.60;99.90;;;;;;5145537;27;20050;-57
2022/12/29 07:55:08;;;;;;;12.63;2.80;;;9.60;99.90;;;;;;5148199;27;20038;-55
2022/12/29 07:57:34;;;;;;;16.73;2.88;;;9.60;99.90;;;;;;5147962;27;20031;-58
2022/12/29 08:00:00;;;;;;;13.75;2.63;;;9.60;99.90;;;;;;5148345;27;20508;-51
2022/12/29 08:02:29;;;;;;;13.77;2.17;;;9.60;99.90;;;;;;5147652;27;20085;-57
2022/12/29 08:04:55;;;;;;;12.07;2.10;;;9.60;99.90;;;;;;5145544;27;20489;-56
2022/12/29 08:07:20;;;;;;;11.20;2.25;;;9.60;99.90;;;;;;5127878;27;20034;-54
2022/12/29 08:09:46;;;;;;;17.30;3.10;;;9.60;99.90;;;;;;5146914;27;20123;-55
2022/12/29 08:12:11;;;;;;;13.02;2.80;;;9.60;99.90;;;;;;5147896;27;20583;-55
2022/12/29 08:14:37;;;;;;;16.50;2.67;;;9.60;99.90;;;;;;5146704;27;20501;-56
2022/12/29 08:17:03;;;;;;;13.68;3.05;;;9.60;99.90;;;;;;5146774;27;20045;-57
2022/12/29 08:19:28;;;;;;;15.07;2.95;;;9.60;99.90;;;;;;5145655;27;20106;-57
2022/12/29 08:21:54;;;;;;;18.70;3.08;;;9.50;99.90;;;;;;5146077;27;20041;-58
2022/12/29 08:24:19;;;;;;;17.77;3.15;;;9.60;99.90;;;;;;5127120;27;20398;-59
2022/12/29 08:26:45;;;;;;;14.63;2.38;;;9.60;99.90;;;;;;5147524;27;20509;-57
2022/12/29 08:29:10;;;;;;;16.92;2.80;;;9.60;99.90;;;;;;5147475;27;20481;-56
2022/12/29 08:31:36;;;;;;;18.70;2.45;;;9.60;99.90;;;;;;5145976;27;20177;-53
2022/12/29 08:34:03;;;;;;;16.48;2.58;;;9.60;99.90;;;;;;5144779;27;20936;-52
2022/12/29 08:36:30;;;;;;;19.85;2.80;;;9.60;99.90;;;;;;5146342;27;20073;-51
2022/12/29 08:38:56;;;;;;;18.23;3.88;;;9.70;99.90;;;;;;5145568;27;20072;-56
2022/12/29 08:41:22;;;;;;;27.13;3.22;;;9.70;99.90;;;;;;5128696;27;20110;-57
2022/12/29 08:43:49;;;;;;;20.65;3.42;;;9.70;99.90;;;;;;5147290;27;20456;-55
2022/12/29 08:46:15;;;;;;;13.70;2.80;;;9.70;99.90;;;;;;5146992;27;20046;-55
2022/12/29 08:48:41;;;;;;;18.33;2.85;;;9.60;99.90;;;;;;5143716;27;20034;-57
2022/12/29 08:51:07;;;;;;;16.83;2.88;;;9.70;99.90;;;;;;5145824;27;20058;-53
2022/12/29 08:53:33;;;;;;;17.40;3.28;;;9.70;99.90;;;;;;5145191;27;20031;-56
2022/12/29 08:56:00;;;;;;;23.92;3.45;;;9.70;99.90;;;;;;5147002;27;20103;-53
2022/12/29 08:58:26;;;;;;;21.55;3.42;;;9.70;99.90;;;;;;5145664;27;20428;-56
2022/12/29 09:00:58;;;;;;;20.35;3.22;;;9.70;99.90;;;;;;5146114;27;20095;-56
2022/12/29 09:03:25;;;;;;;20.55;3.83;;;9.70;99.90;;;;;;5131377;27;20056;-56
2022/12/29 09:05:52;;;;;;;19.25;3.17;;;9.70;99.90;;;;;;5144642;27;20046;-58
2022/12/29 09:08:17;;;;;;;19.52;4.25;;;9.70;99.90;;;;;;5144814;27;20039;-55
2022/12/29 09:10:43;;;;;;;17.50;3.40;;;9.60;99.90;;;;;;5147134;27;20641;-56
2022/12/29 09:13:10;;;;;;;22.90;4.35;;;9.60;99.90;;;;;;5146802;27;20043;-56
2022/12/29 09:15:35;;;;;;;19.15;3.50;;;9.50;99.90;;;;;;5145760;27;20037;-55
2022/12/29 09:18:01;;;;;;;21.30;3.13;;;9.50;99.90;;;;;;5145647;27;20452;-56
2022/12/29 09:20:27;;;;;;;18.60;2.65;;;9.50;99.90;;;;;;5145474;27;20066;-58
2022/12/29 09:22:53;;;;;;;20.00;3.38;;;9.50;99.90;;;;;;5144534;27;20085;-56
2022/12/29 09:25:19;;;;;;;25.20;3.35;;;9.40;99.90;;;;;;5146345;27;20045;-58
2022/12/29 09:27:45;;;;;;;17.15;3.20;;;9.50;99.90;;;;;;5146416;27;20050;-57
2022/12/29 09:30:12;;;;;;;17.83;3.90;;;9.40;99.90;;;;;;5146072;27;20118;-55
2022/12/29 09:32:38;;;;;;;14.07;3.25;;;9.40;99.90;;;;;;5144718;27;20466;-55
2022/12/29 09:35:04;;;;;;;20.00;2.95;;;9.30;99.90;;;;;;5144259;27;20039;-56
2022/12/29 09:37:30;;;;;;;16.20;3.28;;;9.20;99.90;;;;;;5145044;27;20576;-54
2022/12/29 09:39:55;;;;;;;17.45;3.63;;;9.10;99.90;;;;;;5143521;27;20045;-55
2022/12/29 09:42:53;;;;;;;22.98;3.05;;;9.00;99.90;;;;;;5146122;27;20034;-58
2022/12/29 09:45:39;;;;;;;22.77;4.25;;;9.00;99.90;;;;;;5125125;27;20047;-58
2022/12/29 09:48:13;;;;;;;16.70;2.85;;;9.00;99.90;;;;;;5127239;27;20130;-56
2022/12/29 09:50:43;;;;;;;18.30;3.42;;;9.00;99.90;;;;;;5144556;27;20062;-56
2022/12/29 09:53:25;;;;;;;17.60;3.38;;;9.10;99.90;;;;;;5143729;27;20039;-56
2022/12/29 09:55:55;;;;;;;19.05;3.00;;;9.10;99.90;;;;;;5145959;27;20532;-53
2022/12/29 09:58:36;;;;;;;18.35;2.75;;;9.20;99.90;;;;;;5145899;27;20043;-56
2022/12/29 10:01:21;;;;;;;19.88;2.90;;;9.20;99.90;;;;;;5144763;27;20413;-57
2022/12/29 10:03:48;;;;;;;21.08;3.17;;;9.20;99.90;;;;;;5143283;27;20062;-60
2022/12/29 10:06:22;;;;;;;17.77;2.97;;;9.20;99.90;;;;;;5142223;27;20042;-55
2022/12/29 10:09:12;;;;;;;14.73;2.83;;;9.10;99.90;;;;;;5125080;27;20047;-52
2022/12/29 10:12:16;;;;;;;17.45;2.72;;;9.10;99.90;;;;;;5145564;27;20042;-55
2022/12/29 10:14:57;;;;;;;19.88;3.28;;;9.10;99.90;;;;;;5137069;27;20504;-54
2022/12/29 10:17:36;;;;;;;14.55;2.47;;;9.10;99.90;;;;;;5144409;27;20039;-55
2022/12/29 10:20:22;;;;;;;18.73;2.45;;;9.10;99.90;;;;;;5143634;27;20034;-59
2022/12/29 10:23:12;;;;;;;13.77;2.85;;;9.10;99.90;;;;;;5143497;27;20042;-55
2022/12/29 10:25:41;;;;;;;15.70;2.85;;;9.10;99.90;;;;;;5126218;27;20108;-59
2022/12/29 10:28:18;;;;;;;18.25;3.80;;;9.10;99.90;;;;;;5106705;28;20138;-56
2022/12/29 10:30:47;;;;;;;17.58;3.33;;;9.10;99.90;;;;;;5123846;28;20062;-55
2022/12/29 10:33:19;;;;;;;17.02;3.25;;;9.10;99.90;;;;;;5135476;27;20043;-54
2022/12/29 10:35:46;;;;;;;19.75;2.50;;;9.00;99.90;;;;;;5144870;27;20042;-60
2022/12/29 10:38:37;;;;;;;20.80;3.20;;;9.00;99.90;;;;;;5147118;27;20035;-57
2022/12/29 10:41:16;;;;;;;17.27;2.75;;;8.90;99.90;;;;;;5149644;27;20035;-56
2022/12/29 10:43:52;;;;;;;15.95;3.40;;;8.80;99.90;;;;;;5149971;27;20055;-53
2022/12/29 10:46:25;;;;;;;19.33;2.90;;;8.80;99.90;;;;;;5149836;27;20074;-61
2022/12/29 10:48:51;;;;;;;8.25;2.00;;;8.70;99.90;;;;;;5146701;27;20051;-57
2022/12/29 10:51:24;;;;;;;20.77;3.22;;;8.70;99.90;;;;;;5148509;27;20047;-55
2022/12/29 10:54:18;;;;;;;20.57;3.77;;;8.80;99.90;;;;;;5147355;27;20051;-54
2022/12/29 10:56:44;;;;;;;16.33;2.88;;;8.70;99.90;;;;;;5149405;27;20276;-58
2022/12/29 10:59:25;;;;;;;19.52;4.13;;;8.80;99.90;;;;;;5149641;27;20066;-54
2022/12/29 11:02:09;;;;;;;21.25;4.53;;;8.80;99.90;;;;;;5147965;27;20437;-57
2022/12/29 11:05:12;;;;;;;16.67;3.10;;;8.80;99.90;;;;;;5147916;27;20121;-57
2022/12/29 11:07:38;;;;;;;15.65;3.20;;;8.80;99.90;;;;;;5147809;27;20046;-59
2022/12/29 11:10:34;;;;;;;15.00;2.92;;;8.80;99.90;;;;;;5148609;27;20089;-55
2022/12/29 11:13:02;;;;;;;14.45;3.17;;;8.80;99.90;;;;;;5148277;27;20043;-58
2022/12/29 11:15:39;;;;;;;13.85;2.72;;;8.80;99.90;;;;;;5148824;27;20042;-56
2022/12/29 11:18:05;;;;;;;14.82;2.33;;;8.80;99.90;;;;;;5147961;27;20042;-56
2022/12/29 11:20:33;;;;;;;12.65;2.55;;;8.80;99.90;;;;;;5147590;27;20057;-56
2022/12/29 11:22:59;;;;;;;14.93;2.75;;;8.80;99.90;;;;;;5146407;27;20799;-57
2022/12/29 11:25:25;;;;;;;17.52;3.40;;;8.80;99.90;;;;;;5149113;27;20142;-55
2022/12/29 11:28:13;;;;;;;17.42;3.55;;;8.80;99.90;;;;;;5148683;27;20034;-53
2022/12/29 11:30:39;;;;;;;17.48;3.53;;;8.90;99.90;;;;;;5148080;27;20042;-58
2022/12/29 11:33:05;;;;;;;15.18;2.85;;;8.90;99.90;;;;;;5146529;27;20103;-56
2022/12/29 11:35:35;;;;;;;18.83;2.95;;;9.10;99.90;;;;;;5147189;27;20554;-57
2022/12/29 11:38:02;;;;;;;13.73;2.92;;;9.20;99.90;;;;;;5146700;27;20091;-57
2022/12/29 11:40:28;;;;;;;19.73;3.47;;;9.30;99.90;;;;;;5148669;27;20110;-57
2022/12/29 11:42:59;;;;;;;15.80;3.00;;;9.30;99.90;;;;;;5148432;27;20042;-57
2022/12/29 11:45:27;;;;;;;19.33;3.95;;;9.40;99.90;;;;;;5147392;27;20050;-57
2022/12/29 11:48:19;;;;;;;19.13;3.10;;;9.40;99.90;;;;;;5146586;27;20118;-52
2022/12/29 11:50:53;;;;;;;17.63;3.53;;;9.20;99.90;;;;;;5133938;27;20065;-58
2022/12/29 11:53:32;;;;;;;26.08;4.43;;;9.30;99.90;;;;;;5145139;27;20053;-56
2022/12/29 11:56:09;;;;;;;18.00;3.63;;;9.40;99.90;;;;;;5148194;27;20497;-59
2022/12/29 11:58:37;;;;;;;30.02;5.05;;;9.40;99.90;;;;;;5148284;27;20500;-57
2022/12/29 12:01:15;;;;;;;25.13;3.65;;;9.50;99.90;;;;;;5146740;27;20077;-56
2022/12/29 12:03:47;;;;;;;26.98;4.97;;;9.50;99.90;;;;;;5146737;27;20404;-55
2022/12/29 12:06:18;;;;;;;29.02;4.32;;;9.50;99.90;;;;;;5146704;27;20046;-57
2022/12/29 12:08:51;;;;;;;23.15;3.75;;;9.60;99.90;;;;;;5146169;27;20113;-53
2022/12/29 12:11:26;;;;;;;16.85;3.60;;;9.60;99.90;;;;;;5147955;27;20046;-57
2022/12/29 12:14:02;;;;;;;21.30;3.92;;;9.50;99.90;;;;;;5147057;27;20401;-54
2022/12/29 12:16:36;;;;;;;21.00;3.40;;;9.50;99.90;;;;;;5148108;27;20043;-57
2022/12/29 12:19:19;;;;;;;23.25;4.07;;;9.40;99.90;;;;;;5146277;27;20682;-56
2022/12/29 12:21:50;;;;;;;19.88;3.47;;;9.40;99.90;;;;;;5146593;27;20374;-56
2022/12/29 12:24:17;;;;;;;26.77;4.22;;;9.40;99.90;;;;;;5147004;27;20041;-58
2022/12/29 12:27:19;;;;;;;20.02;4.50;;;9.40;99.90;;;;;;5147420;27;20504;-51
2022/12/29 12:29:56;;;;;;;19.77;4.15;;;9.40;99.90;;;;;;5146945;27;20042;-57
2022/12/29 12:32:53;;;;;;;22.67;3.65;;;9.50;99.90;;;;;;5147790;27;20162;-57
2022/12/29 12:35:45;;;;;;;22.98;3.92;;;9.60;99.90;;;;;;5146931;27;20501;-55
2022/12/29 12:38:46;;;;;;;20.98;4.32;;;9.70;99.90;;;;;;5126774;27;20042;-57
2022/12/29 12:41:25;;;;;;;26.73;3.40;;;9.80;99.90;;;;;;5146832;27;20089;-53
2022/12/29 12:44:21;;;;;;;13.05;2.67;;;9.80;99.90;;;;;;5127893;27;20047;-56
2022/12/29 12:47:06;;;;;;;22.42;3.55;;;9.90;99.90;;;;;;5097211;27;20034;-58
2022/12/29 12:49:40;;;;;;;;;;;10.00;99.90;;;;;;5145246;27;20489;-56
2022/12/29 12:52:14;;;;;;;15.30;2.90;;;10.00;99.90;;;;;;5145762;27;20288;-55
2022/12/29 12:55:04;;;;;;;14.27;3.00;;;10.10;99.90;;;;;;5146206;27;20122;-54
2022/12/29 12:57:29;;;;;;;16.92;2.97;;;10.10;99.90;;;;;;5147252;27;20161;-57
2022/12/29 13:00:08;;;;;;;29.00;4.35;;;10.20;99.90;;;;;;5146000;27;20171;-53
2022/12/29 13:02:56;;;;;;;17.75;3.63;;;10.30;99.90;;;;;;5128320;27;20125;-55
2022/12/29 13:05:39;;;;;;;23.38;4.45;;;10.20;99.90;;;;;;5139293;27;20157;-53
2022/12/29 13:08:33;;;;;;;16.17;3.13;;;10.00;99.90;;;;;;5144673;27;20450;-51
2022/12/29 13:11:13;;;;;;;18.73;3.28;;;9.90;99.90;;;;;;5146750;27;20095;-56
2022/12/29 13:13:50;;;;;;;20.42;2.97;;;9.90;99.90;;;;;;5146674;27;20042;-53
2022/12/29 13:16:35;;;;;;;17.13;2.90;;;9.80;99.90;;;;;;5146209;27;20038;-52
2022/12/29 13:19:34;;;;;;;16.73;2.80;;;9.80;99.90;;;;;;5125947;27;20166;-56
2022/12/29 13:22:08;;;;;;;18.45;3.70;;;9.70;99.90;;;;;;5145147;27;20043;-56
2022/12/29 13:24:39;;;;;;;15.27;2.80;;;9.60;99.90;;;;;;5145265;27;20038;-54
2022/12/29 13:27:28;;;;;;;14.93;2.65;;;9.60;99.90;;;;;;5146662;27;20115;-53
2022/12/29 13:30:14;;;;;;;20.02;3.17;;;9.60;99.90;;;;;;5145047;27;20039;-54
2022/12/29 13:32:58;;;;;;;21.88;3.28;;;9.50;99.90;;;;;;5146564;27;20364;-55
2022/12/29 13:35:54;;;;;;;22.15;3.45;;;9.50;99.90;;;;;;5138535;27;20111;-53
2022/12/29 13:38:25;;;;;;;13.52;2.50;;;9.50;99.90;;;;;;5144658;27;20038;-57
2022/12/29 13:41:04;;;;;;;21.17;4.13;;;9.40;99.90;;;;;;5146374;27;20047;-49
2022/12/29 13:43:34;;;;;;;19.70;3.10;;;9.40;99.90;;;;;;5145845;27;20050;-54